Time;durP1;ratioP1;P1;durP2;ratioP2;P2;SDS_P1;SDS_P2;PMS_P1;PMS_P2;Temp;Humidity;BMP_temperature;BMP_pressure;BME280_temperature;BME280_humidity;BME280_pressure;Samples;Min_cycle;Max_cycle;Signal;HPM_P1;HPM_P2
2022/07/08 00:01:30;;;;;;;2.10;1.47;;;18.40;98.00;;;;;;5031252;28;20504;-73
2022/07/08 00:03:57;;;;;;;3.10;1.80;;;18.50;98.00;;;;;;5030932;28;20473;-73
2022/07/08 00:06:24;;;;;;;1.50;1.40;;;18.40;98.00;;;;;;5031069;28;20466;-74
2022/07/08 00:08:52;;;;;;;2.00;1.40;;;18.30;98.00;;;;;;5013474;28;20826;-73
2022/07/08 00:11:20;;;;;;;1.50;1.43;;;18.30;98.00;;;;;;5031248;28;20557;-73
2022/07/08 00:13:48;;;;;;;2.07;1.70;;;18.30;98.00;;;;;;5030894;28;20496;-74
2022/07/08 00:16:18;;;;;;;2.10;1.60;;;18.30;98.00;;;;;;5013576;28;20537;-74
2022/07/08 00:18:45;;;;;;;1.40;1.37;;;18.30;98.00;;;;;;5031275;28;20985;-73
2022/07/08 00:21:13;;;;;;;1.63;1.40;;;18.20;98.00;;;;;;5030879;28;20462;-74
2022/07/08 00:23:41;;;;;;;2.40;1.73;;;18.20;98.00;;;;;;5030826;28;20468;-74
2022/07/08 00:26:08;;;;;;;1.40;1.30;;;18.20;98.00;;;;;;5013320;28;20821;-73
2022/07/08 00:28:37;;;;;;;2.53;1.50;;;18.20;98.00;;;;;;5030921;28;20544;-74
2022/07/08 00:31:04;;;;;;;1.97;1.47;;;18.10;98.00;;;;;;5013357;28;20887;-73
2022/07/08 00:33:31;;;;;;;1.90;1.70;;;17.90;98.00;;;;;;5030953;28;20855;-74
2022/07/08 00:35:59;;;;;;;1.80;1.40;;;18.00;98.00;;;;;;4996928;28;20483;-73
2022/07/08 00:38:34;;;;;;;3.17;1.67;;;18.00;98.00;;;;;;5030872;28;20521;-73
2022/07/08 00:41:02;;;;;;;2.70;1.77;;;17.90;98.00;;;;;;5030930;28;20871;-74
2022/07/08 00:43:38;;;;;;;1.67;1.40;;;17.90;98.00;;;;;;5013400;28;20469;-74
2022/07/08 00:46:06;;;;;;;1.63;1.50;;;17.90;98.00;;;;;;5030735;28;20450;-73
2022/07/08 00:48:34;;;;;;;2.30;2.10;;;17.90;98.00;;;;;;5030681;28;20469;-73
2022/07/08 00:51:03;;;;;;;2.07;1.60;;;17.80;98.00;;;;;;5030896;28;20517;-73
2022/07/08 00:53:33;;;;;;;2.30;1.50;;;17.80;98.00;;;;;;5030548;28;20502;-74
2022/07/08 00:56:01;;;;;;;2.20;1.80;;;17.80;98.00;;;;;;5030636;28;20468;-73
2022/07/08 00:58:29;;;;;;;3.83;1.73;;;17.80;98.00;;;;;;5030732;28;20983;-74
2022/07/08 01:01:00;;;;;;;2.37;2.03;;;17.60;98.00;;;;;;5030701;28;20463;-73
2022/07/08 01:03:27;;;;;;;1.77;1.47;;;17.60;98.00;;;;;;5030745;28;21015;-73
2022/07/08 01:05:55;;;;;;;2.00;1.50;;;17.60;98.00;;;;;;5030525;28;20485;-74
2022/07/08 01:08:23;;;;;;;1.90;1.57;;;17.50;98.00;;;;;;5030565;28;20455;-74
2022/07/08 01:10:51;;;;;;;4.40;1.93;;;17.50;98.00;;;;;;5030658;28;20463;-74
2022/07/08 01:13:19;;;;;;;4.40;1.60;;;17.50;98.00;;;;;;5030670;28;20491;-73
2022/07/08 01:15:47;;;;;;;2.00;1.30;;;17.40;98.00;;;;;;5033604;28;20450;-73
2022/07/08 01:18:23;;;;;;;1.50;1.50;;;17.40;98.00;;;;;;5034167;28;20465;-74
2022/07/08 01:20:52;;;;;;;1.50;1.33;;;17.40;98.00;;;;;;5034039;28;20458;-73
2022/07/08 01:23:20;;;;;;;2.57;1.43;;;17.40;98.00;;;;;;5033960;28;20466;-73
2022/07/08 01:25:48;;;;;;;1.33;1.30;;;17.40;98.00;;;;;;5033949;28;20455;-73
2022/07/08 01:28:16;;;;;;;4.20;2.10;;;17.30;98.00;;;;;;5015826;28;20455;-73
2022/07/08 01:30:44;;;;;;;1.73;1.50;;;17.20;98.00;;;;;;5033795;28;20462;-73
2022/07/08 01:33:11;;;;;;;2.40;1.50;;;17.20;98.00;;;;;;5033912;28;20872;-74
2022/07/08 01:35:38;;;;;;;2.20;1.60;;;17.20;98.00;;;;;;5033604;28;20463;-74
2022/07/08 01:38:08;;;;;;;1.80;1.47;;;17.30;98.00;;;;;;5033702;28;20465;-73
2022/07/08 01:40:35;;;;;;;2.03;1.60;;;17.20;98.00;;;;;;5033689;28;20482;-73
2022/07/08 01:43:03;;;;;;;1.90;1.60;;;17.30;98.00;;;;;;5016069;28;20463;-74
2022/07/08 01:45:30;;;;;;;3.10;1.93;;;17.30;98.00;;;;;;5033459;28;20827;-74
2022/07/08 01:47:57;;;;;;;2.00;1.50;;;17.40;98.00;;;;;;5033460;28;20459;-73
2022/07/08 01:50:24;;;;;;;2.63;1.63;;;17.40;98.00;;;;;;5033519;28;20821;-73
2022/07/08 01:52:52;;;;;;;2.10;1.80;;;17.30;98.00;;;;;;5033456;28;20574;-74
2022/07/08 01:55:20;;;;;;;2.20;1.70;;;17.30;98.00;;;;;;5033254;28;20465;-73
2022/07/08 01:57:48;;;;;;;2.10;1.60;;;17.30;98.00;;;;;;5033295;28;20467;-73
2022/07/08 02:00:15;;;;;;;2.63;1.53;;;17.30;98.00;;;;;;5033209;28;20845;-74
2022/07/08 02:02:44;;;;;;;4.03;1.73;;;17.30;98.00;;;;;;5033323;28;20554;-73
2022/07/08 02:05:12;;;;;;;2.40;1.80;;;17.20;98.00;;;;;;5032981;28;20590;-73
2022/07/08 02:07:40;;;;;;;1.70;1.37;;;17.20;98.00;;;;;;5033150;28;20542;-74
2022/07/08 02:10:08;;;;;;;2.33;1.60;;;17.20;98.00;;;;;;5033121;28;20451;-73
2022/07/08 02:12:36;;;;;;;8.10;1.87;;;17.10;98.00;;;;;;5032999;28;20486;-73
2022/07/08 02:15:06;;;;;;;1.90;1.53;;;17.00;98.00;;;;;;5033367;28;20466;-73
2022/07/08 02:17:36;;;;;;;2.13;1.70;;;16.90;98.00;;;;;;5033128;28;21009;-74
2022/07/08 02:20:05;;;;;;;2.57;1.97;;;16.90;98.00;;;;;;5033269;28;20470;-74
2022/07/08 02:22:32;;;;;;;1.63;1.50;;;16.80;98.00;;;;;;5032853;28;20467;-73
2022/07/08 02:24:59;;;;;;;2.50;1.90;;;16.80;98.00;;;;;;5032712;28;20469;-73
2022/07/08 02:27:27;;;;;;;5.17;1.87;;;16.80;98.00;;;;;;5031507;28;20534;-74
2022/07/08 02:29:56;;;;;;;2.20;1.50;;;16.80;98.00;;;;;;5032885;28;20565;-73
2022/07/08 02:32:23;;;;;;;2.70;1.77;;;16.70;98.00;;;;;;5032747;28;20459;-73
2022/07/08 02:34:51;;;;;;;2.77;2.10;;;16.70;98.00;;;;;;5032669;28;20455;-74
2022/07/08 02:37:18;;;;;;;1.77;1.47;;;16.60;98.00;;;;;;5032477;28;20473;-73
2022/07/08 02:39:46;;;;;;;1.87;1.53;;;16.60;98.00;;;;;;5032481;28;20538;-73
2022/07/08 02:42:14;;;;;;;1.60;1.40;;;16.70;98.00;;;;;;5032319;28;20467;-73
2022/07/08 02:44:41;;;;;;;2.13;1.60;;;16.70;98.00;;;;;;5032678;28;20455;-73
2022/07/08 02:47:10;;;;;;;2.03;1.60;;;16.60;98.00;;;;;;5032332;28;20561;-73
2022/07/08 02:49:37;;;;;;;2.70;1.87;;;16.50;98.00;;;;;;5032355;28;20470;-74
2022/07/08 02:52:05;;;;;;;3.60;1.50;;;16.40;98.00;;;;;;5032057;28;20454;-73
2022/07/08 02:54:32;;;;;;;2.40;1.60;;;16.30;98.00;;;;;;5032207;28;20486;-74
2022/07/08 02:57:00;;;;;;;2.37;1.63;;;16.40;98.00;;;;;;5032138;28;20457;-73
2022/07/08 02:59:27;;;;;;;4.50;1.77;;;16.40;98.00;;;;;;5032045;28;20820;-73
2022/07/08 03:01:54;;;;;;;1.60;1.50;;;16.30;98.00;;;;;;5032230;28;20797;-73
2022/07/08 03:04:23;;;;;;;2.70;1.60;;;16.00;98.00;;;;;;5031887;28;20574;-73
2022/07/08 03:06:50;;;;;;;2.20;1.80;;;15.90;98.00;;;;;;5031989;28;20823;-73
2022/07/08 03:09:17;;;;;;;2.43;1.80;;;15.60;98.00;;;;;;5031865;28;20455;-74
2022/07/08 03:11:44;;;;;;;1.87;1.50;;;15.70;98.00;;;;;;5032132;28;20466;-73
2022/07/08 03:14:12;;;;;;;2.30;1.70;;;15.60;98.00;;;;;;5031931;28;21046;-73
2022/07/08 03:16:39;;;;;;;1.83;1.60;;;15.40;98.00;;;;;;5032074;28;20459;-73
2022/07/08 03:19:06;;;;;;;2.43;1.57;;;15.20;98.00;;;;;;5032011;28;20817;-73
2022/07/08 03:21:35;;;;;;;2.13;1.63;;;15.10;98.00;;;;;;5031922;28;20852;-73
2022/07/08 03:24:02;;;;;;;4.40;1.90;;;15.00;98.00;;;;;;5014427;28;20823;-73
2022/07/08 03:26:29;;;;;;;1.77;1.40;;;15.10;98.00;;;;;;5014116;28;20463;-73
2022/07/08 03:28:57;;;;;;;2.10;1.80;;;15.10;98.00;;;;;;5031761;28;20554;-74
2022/07/08 03:31:24;;;;;;;3.27;2.03;;;15.00;98.00;;;;;;5031633;28;20520;-74
2022/07/08 03:33:51;;;;;;;1.70;1.60;;;15.00;98.00;;;;;;5031690;28;20491;-73
2022/07/08 03:36:19;;;;;;;1.70;1.37;;;15.00;98.00;;;;;;5031479;28;20809;-73
2022/07/08 03:38:50;;;;;;;3.20;1.60;;;15.10;98.00;;;;;;5030965;28;20859;-73
2022/07/08 03:41:23;;;;;;;1.93;1.43;;;15.00;98.00;;;;;;5030684;28;20538;-74
2022/07/08 03:43:51;;;;;;;1.70;1.40;;;15.10;98.00;;;;;;5031463;28;20506;-73
2022/07/08 03:46:21;;;;;;;1.60;1.40;;;15.10;98.00;;;;;;5013680;28;20465;-74
2022/07/08 03:48:48;;;;;;;3.50;1.73;;;15.00;98.00;;;;;;5031328;28;21173;-74
2022/07/08 03:51:16;;;;;;;2.40;1.77;;;15.10;98.00;;;;;;5031237;28;20459;-73
2022/07/08 03:53:44;;;;;;;2.73;1.30;;;15.00;98.00;;;;;;5031238;28;20489;-73
2022/07/08 03:56:13;;;;;;;2.80;1.70;;;15.00;98.00;;;;;;5031133;28;20850;-74
2022/07/08 03:58:40;;;;;;;1.80;1.40;;;15.00;98.00;;;;;;5013707;28;20451;-73
2022/07/08 04:01:09;;;;;;;1.43;1.33;;;15.00;98.00;;;;;;5031163;28;20458;-73
2022/07/08 04:03:37;;;;;;;2.67;1.50;;;15.10;98.00;;;;;;5031049;28;20478;-74
2022/07/08 04:06:05;;;;;;;1.70;1.40;;;15.20;98.00;;;;;;5031034;28;20461;-73
2022/07/08 04:08:32;;;;;;;2.50;2.03;;;15.20;98.00;;;;;;5031228;28;20501;-74
2022/07/08 04:11:00;;;;;;;2.60;2.00;;;15.40;98.00;;;;;;5031078;28;20458;-74
2022/07/08 04:13:28;;;;;;;1.67;1.30;;;15.50;98.00;;;;;;5031013;28;20479;-73
2022/07/08 04:15:56;;;;;;;1.73;1.40;;;15.50;98.00;;;;;;5031378;28;20474;-73
2022/07/08 04:18:24;;;;;;;1.87;1.43;;;15.60;98.00;;;;;;5031294;28;20513;-73
2022/07/08 04:20:52;;;;;;;3.10;1.80;;;15.60;98.00;;;;;;5031212;28;20463;-74
2022/07/08 04:23:22;;;;;;;2.47;1.60;;;15.60;98.00;;;;;;5031042;28;20534;-74
2022/07/08 04:25:51;;;;;;;4.57;1.80;;;15.60;98.00;;;;;;5030521;28;20458;-73
2022/07/08 04:28:18;;;;;;;3.10;1.80;;;15.60;98.00;;;;;;5031082;28;20466;-73
2022/07/08 04:30:47;;;;;;;2.00;1.67;;;15.50;98.00;;;;;;5031040;28;20537;-74
2022/07/08 04:33:14;;;;;;;3.47;1.60;;;15.50;98.00;;;;;;5030842;28;21079;-74
2022/07/08 04:35:41;;;;;;;2.60;1.50;;;15.50;98.00;;;;;;5032042;28;20891;-73
2022/07/08 04:38:09;;;;;;;3.17;1.80;;;15.60;98.00;;;;;;5014594;28;20965;-74
2022/07/08 04:40:36;;;;;;;1.80;1.50;;;15.60;98.00;;;;;;5031611;28;20462;-73
2022/07/08 04:43:03;;;;;;;3.03;1.37;;;15.70;98.00;;;;;;5030761;28;20463;-73
2022/07/08 04:45:31;;;;;;;1.57;1.30;;;15.60;98.00;;;;;;5031751;28;20469;-73
2022/07/08 04:47:59;;;;;;;1.53;1.40;;;15.70;98.00;;;;;;5031848;28;20450;-74
2022/07/08 04:50:27;;;;;;;3.33;1.53;;;15.80;98.00;;;;;;5033925;28;20458;-73
2022/07/08 04:52:54;;;;;;;2.10;1.60;;;15.80;98.00;;;;;;5034917;28;20458;-74
2022/07/08 04:55:31;;;;;;;5.83;1.80;;;15.80;98.00;;;;;;5034400;28;20461;-73
2022/07/08 04:57:59;;;;;;;1.50;1.30;;;15.60;98.00;;;;;;5034495;28;20490;-73
2022/07/08 05:00:28;;;;;;;3.40;1.57;;;15.60;98.00;;;;;;5034269;28;20465;-73
2022/07/08 05:02:56;;;;;;;2.27;1.40;;;15.70;98.00;;;;;;5034461;28;20466;-73
2022/07/08 05:05:26;;;;;;;3.20;2.13;;;15.80;98.00;;;;;;5034271;28;20480;-74
2022/07/08 05:07:53;;;;;;;1.83;1.50;;;15.80;98.00;;;;;;5034450;28;20457;-73
2022/07/08 05:10:22;;;;;;;7.40;1.73;;;15.70;98.00;;;;;;5034271;28;21020;-73
2022/07/08 05:12:50;;;;;;;2.00;1.30;;;15.80;98.00;;;;;;5034155;28;20454;-73
2022/07/08 05:15:18;;;;;;;1.67;1.47;;;15.90;98.00;;;;;;5034156;28;20486;-74
2022/07/08 05:17:47;;;;;;;1.67;1.30;;;16.00;98.00;;;;;;5034195;28;20553;-73
2022/07/08 05:20:14;;;;;;;1.80;1.50;;;16.00;98.00;;;;;;5034244;28;20953;-73
2022/07/08 05:22:43;;;;;;;2.00;1.70;;;16.00;98.00;;;;;;5034032;28;20458;-73
2022/07/08 05:25:12;;;;;;;1.73;1.40;;;16.00;98.00;;;;;;5034002;28;20469;-74
2022/07/08 05:27:40;;;;;;;1.83;1.47;;;16.00;98.00;;;;;;5034074;28;20565;-73
2022/07/08 05:30:09;;;;;;;2.07;1.40;;;16.10;98.00;;;;;;5033822;28;20470;-74
2022/07/08 05:32:37;;;;;;;8.23;2.17;;;16.10;98.00;;;;;;5033885;28;20481;-74
2022/07/08 05:35:06;;;;;;;1.53;1.40;;;16.00;98.00;;;;;;5033706;28;20509;-73
2022/07/08 05:37:35;;;;;;;1.30;1.20;;;15.90;98.00;;;;;;5033754;28;20466;-73
2022/07/08 05:40:04;;;;;;;1.73;1.27;;;16.10;98.00;;;;;;5033687;28;20513;-73
2022/07/08 05:42:31;;;;;;;1.50;1.30;;;16.30;98.00;;;;;;5033662;28;20455;-73
2022/07/08 05:44:59;;;;;;;1.67;1.57;;;16.50;98.00;;;;;;5033538;28;20458;-73
2022/07/08 05:47:26;;;;;;;2.50;1.63;;;16.50;98.00;;;;;;5033362;28;20991;-74
2022/07/08 05:49:53;;;;;;;1.90;1.57;;;16.40;98.00;;;;;;5033621;28;20549;-74
2022/07/08 05:52:20;;;;;;;2.27;1.20;;;16.40;98.00;;;;;;5033333;28;20481;-76
2022/07/08 05:54:47;;;;;;;1.53;1.20;;;16.40;98.00;;;;;;5033598;28;20487;-76
2022/07/08 05:57:17;;;;;;;1.70;1.20;;;16.40;98.00;;;;;;5033175;28;20466;-77
2022/07/08 05:59:45;;;;;;;1.30;1.20;;;16.50;98.00;;;;;;5033292;28;20459;-77
2022/07/08 06:02:12;;;;;;;1.70;1.30;;;16.60;98.00;;;;;;5033278;28;20884;-76
2022/07/08 06:04:40;;;;;;;5.77;2.10;;;16.70;98.00;;;;;;5033423;28;20466;-76
2022/07/08 06:07:07;;;;;;;2.27;1.87;;;16.80;98.00;;;;;;5032801;28;20457;-76
2022/07/08 06:09:35;;;;;;;2.30;1.50;;;16.80;98.00;;;;;;5033226;28;20549;-77
2022/07/08 06:12:02;;;;;;;2.47;1.50;;;16.80;98.00;;;;;;5033030;28;20953;-77
2022/07/08 06:14:30;;;;;;;1.93;1.30;;;16.90;98.00;;;;;;5033116;28;20485;-76
2022/07/08 06:16:58;;;;;;;1.70;1.30;;;16.90;98.00;;;;;;5033028;28;20473;-78
2022/07/08 06:19:25;;;;;;;2.40;1.50;;;16.90;98.00;;;;;;5033236;28;20465;-79
2022/07/08 06:21:52;;;;;;;4.03;1.57;;;16.80;98.00;;;;;;5033141;28;20474;-76
2022/07/08 06:24:20;;;;;;;1.80;1.40;;;16.80;98.00;;;;;;5033172;28;20459;-77
2022/07/08 06:26:47;;;;;;;2.80;1.50;;;16.60;98.00;;;;;;5033102;28;20513;-76
2022/07/08 06:29:15;;;;;;;2.17;1.40;;;16.40;98.00;;;;;;5032721;28;20470;-77
2022/07/08 06:31:44;;;;;;;2.03;1.40;;;16.30;98.00;;;;;;5032815;28;20840;-77
2022/07/08 06:34:12;;;;;;;2.73;1.27;;;16.40;98.00;;;;;;5032702;28;20493;-77
2022/07/08 06:36:39;;;;;;;3.50;2.10;;;16.50;98.00;;;;;;5032697;28;20459;-76
2022/07/08 06:39:08;;;;;;;1.97;1.63;;;16.50;98.00;;;;;;5032611;28;20891;-77
2022/07/08 06:41:35;;;;;;;1.80;1.33;;;16.60;98.00;;;;;;5015066;28;20529;-76
2022/07/08 06:44:03;;;;;;;1.80;1.20;;;16.70;98.00;;;;;;5032423;28;20455;-77
2022/07/08 06:46:30;;;;;;;1.73;1.47;;;16.70;98.00;;;;;;5032649;28;20466;-77
2022/07/08 06:48:59;;;;;;;1.40;1.30;;;16.50;98.00;;;;;;5032145;28;20473;-78
2022/07/08 06:51:26;;;;;;;1.40;1.40;;;16.70;98.00;;;;;;5030175;28;20447;-77
2022/07/08 06:56:38;;;;;;;2.60;1.70;;;16.70;98.00;;;;;;5032235;28;20469;-76
2022/07/08 06:59:06;;;;;;;1.40;1.40;;;16.80;98.00;;;;;;5029050;28;20463;-76
2022/07/08 07:01:33;;;;;;;1.40;1.20;;;16.80;98.00;;;;;;5029508;28;20593;-76
2022/07/08 07:04:03;;;;;;;1.40;1.20;;;16.80;98.00;;;;;;5029203;28;20581;-77
2022/07/08 07:06:31;;;;;;;1.73;1.50;;;16.90;98.00;;;;;;5029068;28;20888;-77
2022/07/08 07:09:05;;;;;;;1.80;1.50;;;17.00;98.00;;;;;;5029206;28;21054;-77
2022/07/08 07:11:33;;;;;;;1.83;1.50;;;17.10;98.00;;;;;;5028827;28;20991;-77
2022/07/08 07:16:47;;;;;;;2.30;1.70;;;17.20;98.00;;;;;;5028995;28;20462;-77
2022/07/08 07:19:17;;;;;;;1.83;1.40;;;17.40;98.00;;;;;;5029154;28;20469;-76
2022/07/08 07:21:44;;;;;;;2.20;1.60;;;17.30;98.00;;;;;;5029515;28;20862;-76
2022/07/08 07:24:12;;;;;;;3.43;1.50;;;17.50;98.00;;;;;;5029214;28;20458;-76
2022/07/08 07:26:39;;;;;;;2.77;1.50;;;17.50;98.00;;;;;;5028969;28;20465;-77
2022/07/08 07:29:06;;;;;;;1.47;1.30;;;17.40;98.00;;;;;;5028950;28;20459;-77
2022/07/08 07:31:34;;;;;;;1.50;1.30;;;17.50;98.00;;;;;;5028641;28;20486;-78
2022/07/08 07:34:02;;;;;;;2.23;1.40;;;17.70;98.00;;;;;;5028722;28;20451;-71
2022/07/08 07:36:30;;;;;;;6.30;2.20;;;18.00;98.00;;;;;;5011054;28;20462;-77
2022/07/08 07:38:58;;;;;;;1.37;1.20;;;18.20;96.40;;;;;;5028933;28;20811;-77
2022/07/08 07:41:25;;;;;;;1.53;1.40;;;18.30;95.80;;;;;;5028922;28;20451;-76
2022/07/08 07:43:52;;;;;;;1.97;1.30;;;18.40;94.80;;;;;;5028569;28;20957;-77
2022/07/08 07:46:19;;;;;;;2.03;1.33;;;18.40;92.40;;;;;;5028641;28;20454;-76
2022/07/08 07:48:46;;;;;;;2.40;1.27;;;18.40;93.60;;;;;;5028763;28;20472;-77
2022/07/08 07:51:14;;;;;;;2.70;1.60;;;18.60;93.90;;;;;;5026659;28;20489;-77
2022/07/08 07:53:42;;;;;;;1.80;1.30;;;18.70;90.90;;;;;;5028507;28;20944;-77
2022/07/08 07:56:09;;;;;;;2.17;1.40;;;18.90;91.40;;;;;;5028507;28;20501;-77
2022/07/08 07:58:38;;;;;;;1.20;1.20;;;19.00;92.20;;;;;;5028379;28;20467;-77
2022/07/08 08:01:05;;;;;;;1.33;1.20;;;18.90;91.90;;;;;;5028584;28;20470;-76
2022/07/08 08:03:32;;;;;;;1.70;1.50;;;18.90;91.30;;;;;;5028515;28;20496;-77
2022/07/08 08:06:00;;;;;;;2.23;1.47;;;19.00;93.50;;;;;;5028230;28;20574;-77
2022/07/08 08:08:31;;;;;;;1.50;1.30;;;19.10;92.80;;;;;;5028078;28;21006;-77
2022/07/08 08:11:00;;;;;;;1.50;1.40;;;19.10;91.00;;;;;;5028188;28;20552;-76
2022/07/08 08:13:30;;;;;;;2.70;2.13;;;18.90;93.00;;;;;;5028630;28;20467;-77
2022/07/08 08:15:57;;;;;;;1.70;1.33;;;18.70;92.40;;;;;;5028400;28;20577;-77
2022/07/08 08:18:24;;;;;;;3.10;1.50;;;18.70;94.60;;;;;;5028269;28;20489;-77
2022/07/08 08:20:51;;;;;;;1.60;1.30;;;18.80;92.80;;;;;;5028306;28;20477;-76
2022/07/08 08:23:19;;;;;;;2.93;1.60;;;18.80;91.30;;;;;;5029241;28;20993;-77
2022/07/08 08:25:47;;;;;;;3.33;1.60;;;18.80;91.80;;;;;;5014901;28;20454;-77
2022/07/08 08:28:15;;;;;;;2.30;1.60;;;18.70;92.60;;;;;;5032476;28;20451;-77
2022/07/08 08:30:42;;;;;;;3.33;1.50;;;18.70;92.70;;;;;;5032094;28;20461;-77
2022/07/08 08:33:10;;;;;;;2.07;1.40;;;18.70;92.00;;;;;;5032317;28;20466;-73
2022/07/08 08:35:37;;;;;;;1.90;1.43;;;18.70;92.10;;;;;;5032109;28;21031;-76
2022/07/08 08:38:04;;;;;;;1.37;1.23;;;18.70;91.10;;;;;;5031922;28;20458;-73
2022/07/08 08:40:32;;;;;;;2.70;1.30;;;18.70;92.10;;;;;;5032070;28;20461;-75
2022/07/08 08:42:59;;;;;;;1.60;1.30;;;18.80;92.90;;;;;;5031996;28;20504;-75
2022/07/08 08:45:28;;;;;;;1.73;1.37;;;18.80;92.00;;;;;;5031888;28;20957;-76
2022/07/08 08:48:00;;;;;;;5.13;1.20;;;18.80;91.70;;;;;;5031884;28;20462;-76
2022/07/08 08:53:18;;;;;;;4.30;1.30;;;18.70;91.50;;;;;;5016853;28;20814;-72
2022/07/08 08:55:47;;;;;;;3.73;1.83;;;18.70;90.50;;;;;;5031517;28;20518;-77
2022/07/08 08:58:15;;;;;;;1.70;1.47;;;18.60;91.70;;;;;;5031554;28;21024;-76
2022/07/08 09:00:44;;;;;;;1.67;1.30;;;18.70;91.30;;;;;;5031639;28;20459;-77
2022/07/08 09:03:11;;;;;;;1.50;1.20;;;18.90;90.00;;;;;;5031618;28;20957;-71
2022/07/08 09:05:39;;;;;;;3.30;1.37;;;19.10;90.90;;;;;;5032258;28;20462;-78
2022/07/08 09:08:06;;;;;;;3.43;1.60;;;19.10;92.00;;;;;;5029254;28;20986;-78
2022/07/08 09:10:34;;;;;;;4.23;1.60;;;19.30;92.80;;;;;;5032258;28;21003;-78
2022/07/08 09:13:06;;;;;;;2.10;1.80;;;19.70;89.90;;;;;;5032087;28;20624;-78
2022/07/08 09:15:34;;;;;;;2.60;1.40;;;20.10;89.00;;;;;;5032109;28;21008;-77
2022/07/08 09:18:06;;;;;;;1.40;1.17;;;20.40;88.20;;;;;;5031769;28;20458;-77
2022/07/08 09:20:43;;;;;;;2.43;1.50;;;20.50;86.90;;;;;;5032202;28;20462;-78
2022/07/08 09:23:13;;;;;;;1.40;1.20;;;20.50;86.30;;;;;;5032312;28;20463;-77
2022/07/08 09:25:40;;;;;;;5.83;1.60;;;20.30;85.90;;;;;;5032388;28;20485;-77
2022/07/08 09:28:07;;;;;;;1.93;1.47;;;20.00;88.60;;;;;;5031925;28;21174;-77
2022/07/08 09:30:35;;;;;;;2.20;1.40;;;19.90;88.80;;;;;;5037024;28;20552;-76
2022/07/08 09:33:04;;;;;;;2.70;1.30;;;19.80;86.50;;;;;;5031865;28;20945;-76
2022/07/08 09:35:33;;;;;;;1.97;1.47;;;19.70;87.60;;;;;;5031725;28;20486;-77
2022/07/08 09:38:04;;;;;;;1.83;1.60;;;19.70;88.00;;;;;;5031466;28;20467;-77
2022/07/08 09:40:32;;;;;;;1.40;1.40;;;19.80;87.50;;;;;;5031725;28;20977;-77
2022/07/08 09:43:02;;;;;;;1.50;1.50;;;20.10;90.30;;;;;;5031480;28;20469;-76
2022/07/08 09:45:33;;;;;;;1.30;1.30;;;20.40;87.30;;;;;;5031117;28;20466;-76
2022/07/08 09:48:07;;;;;;;2.73;1.87;;;20.70;85.80;;;;;;5030805;28;20814;-76
2022/07/08 09:50:39;;;;;;;1.63;1.40;;;21.10;87.70;;;;;;5028991;28;20462;-78
2022/07/08 09:53:17;;;;;;;2.00;1.53;;;21.30;85.80;;;;;;5030381;28;20504;-77
2022/07/08 09:55:47;;;;;;;1.43;1.37;;;21.20;85.50;;;;;;5030663;28;20596;-79
2022/07/08 09:58:19;;;;;;;2.80;1.87;;;20.90;86.60;;;;;;5030421;28;20471;-78
2022/07/08 10:00:47;;;;;;;2.40;1.50;;;20.60;87.20;;;;;;5012752;28;20455;-79
2022/07/08 10:03:16;;;;;;;2.17;1.30;;;20.40;88.70;;;;;;5030154;28;20471;-78
2022/07/08 10:05:44;;;;;;;2.27;1.40;;;20.30;88.00;;;;;;5030085;28;20477;-79
2022/07/08 10:08:13;;;;;;;2.23;1.43;;;20.50;89.60;;;;;;5030350;28;20832;-79
2022/07/08 10:10:42;;;;;;;2.40;1.60;;;20.70;88.30;;;;;;5030403;28;20470;-80
2022/07/08 10:13:09;;;;;;;2.33;1.70;;;21.00;87.30;;;;;;5029533;28;20960;-78
2022/07/08 10:15:38;;;;;;;2.10;1.77;;;21.30;85.30;;;;;;5029602;28;20849;-79
2022/07/08 10:18:12;;;;;;;1.80;1.80;;;21.30;84.90;;;;;;5030140;28;20546;-78
2022/07/08 10:20:45;;;;;;;1.70;1.40;;;21.20;86.20;;;;;;5030283;28;20573;-78
2022/07/08 10:23:22;;;;;;;1.60;1.40;;;21.30;86.60;;;;;;5030191;28;20550;-79
2022/07/08 10:25:50;;;;;;;2.90;1.50;;;21.30;83.90;;;;;;5030430;28;20626;-78
2022/07/08 10:28:18;;;;;;;1.67;1.47;;;21.10;86.90;;;;;;5030331;28;20463;-79
2022/07/08 10:30:50;;;;;;;1.60;1.37;;;21.40;84.90;;;;;;5030072;28;20959;-79
2022/07/08 10:33:24;;;;;;;2.13;1.70;;;21.60;82.30;;;;;;5029963;28;20497;-79
2022/07/08 10:36:20;;;;;;;1.60;1.30;;;21.80;85.40;;;;;;5034611;28;20501;-79
2022/07/08 10:38:48;;;;;;;2.03;1.53;;;22.20;86.70;;;;;;5009646;28;20828;-79
2022/07/08 10:41:20;;;;;;;1.60;1.40;;;22.50;82.20;;;;;;5029611;28;21154;-80
2022/07/08 10:43:51;;;;;;;1.60;1.50;;;22.60;82.80;;;;;;5029660;28;20878;-78
2022/07/08 10:46:23;;;;;;;2.27;1.70;;;22.40;83.90;;;;;;5029378;28;20474;-79
2022/07/08 10:48:55;;;;;;;2.27;1.60;;;22.10;83.80;;;;;;5012290;28;20458;-78
2022/07/08 10:51:50;;;;;;;3.10;1.50;;;22.00;86.20;;;;;;5027243;28;20466;-79
2022/07/08 10:54:27;;;;;;;2.27;1.77;;;22.10;85.70;;;;;;5029799;28;20467;-80
2022/07/08 10:56:56;;;;;;;1.90;1.70;;;22.30;85.10;;;;;;5029351;28;20494;-79
2022/07/08 10:59:25;;;;;;;2.03;1.43;;;22.40;82.80;;;;;;5029664;28;20559;-78
2022/07/08 11:01:54;;;;;;;1.40;1.30;;;22.30;82.20;;;;;;5029383;28;20836;-79
2022/07/08 11:04:29;;;;;;;1.60;1.40;;;22.60;85.30;;;;;;5029369;28;20470;-80
2022/07/08 11:07:28;;;;;;;1.57;1.50;;;22.80;84.90;;;;;;5029797;28;20469;-77
2022/07/08 11:09:57;;;;;;;1.77;1.50;;;23.10;80.70;;;;;;5029153;28;20458;-78
2022/07/08 11:12:26;;;;;;;1.63;1.40;;;23.30;82.60;;;;;;5029292;28;20554;-78
2022/07/08 11:14:55;;;;;;;1.67;1.40;;;23.40;80.00;;;;;;5029152;28;20489;-77
2022/07/08 11:17:23;;;;;;;3.73;1.50;;;23.60;80.00;;;;;;5029105;28;20819;-77
2022/07/08 11:19:54;;;;;;;2.03;1.60;;;23.80;80.00;;;;;;5029238;28;20471;-78
2022/07/08 11:22:24;;;;;;;2.33;1.63;;;24.00;80.30;;;;;;5011243;28;20549;-77
2022/07/08 11:24:56;;;;;;;1.60;1.50;;;24.00;78.30;;;;;;5029114;28;20537;-79
2022/07/08 11:27:25;;;;;;;1.87;1.50;;;24.20;78.40;;;;;;5019216;28;20840;-80
2022/07/08 11:29:55;;;;;;;4.60;2.17;;;24.40;80.20;;;;;;5029220;28;20467;-78
2022/07/08 11:32:23;;;;;;;2.10;1.63;;;24.70;77.40;;;;;;5028620;28;20462;-78
2022/07/08 11:34:51;;;;;;;1.50;1.30;;;24.60;80.20;;;;;;5028893;28;20478;-78
2022/07/08 11:37:18;;;;;;;2.00;1.53;;;24.30;78.50;;;;;;5028681;28;20505;-79
2022/07/08 11:39:52;;;;;;;1.90;1.60;;;23.80;77.10;;;;;;5028942;28;20462;-80
2022/07/08 11:42:19;;;;;;;2.47;1.53;;;23.40;79.20;;;;;;5028574;28;20463;-80
2022/07/08 11:44:47;;;;;;;2.00;1.70;;;23.40;79.50;;;;;;5028643;28;20824;-79
2022/07/08 11:47:19;;;;;;;2.60;1.40;;;23.70;79.60;;;;;;5028486;28;20457;-79
2022/07/08 11:49:48;;;;;;;2.17;1.57;;;24.10;77.80;;;;;;5026204;28;20471;-77
2022/07/08 11:52:17;;;;;;;1.60;1.50;;;24.50;79.60;;;;;;5028462;28;20459;-82
2022/07/08 11:54:49;;;;;;;1.77;1.50;;;24.90;77.40;;;;;;5028489;28;20930;-80
2022/07/08 11:57:17;;;;;;;2.60;1.80;;;25.30;78.60;;;;;;5028295;28;20506;-80
2022/07/08 11:59:45;;;;;;;1.60;1.50;;;25.60;77.30;;;;;;5028338;28;20563;-78
2022/07/08 12:02:13;;;;;;;2.13;1.50;;;25.90;75.10;;;;;;5028280;28;20466;-82
2022/07/08 12:04:45;;;;;;;1.50;1.30;;;25.60;73.80;;;;;;5028431;28;20870;-66
2022/07/08 12:07:23;;;;;;;1.80;1.57;;;25.40;77.80;;;;;;5028336;28;20477;-80
2022/07/08 12:09:57;;;;;;;1.30;1.20;;;25.50;76.40;;;;;;5029066;28;20769;-79
2022/07/08 12:12:25;;;;;;;1.50;1.40;;;25.90;77.50;;;;;;5028481;28;20528;-79
2022/07/08 12:14:53;;;;;;;1.67;1.43;;;26.00;73.90;;;;;;5027638;28;20502;-78
2022/07/08 12:17:24;;;;;;;2.40;1.77;;;26.00;74.50;;;;;;5009343;28;20482;-80
2022/07/08 12:19:53;;;;;;;2.40;1.70;;;26.00;73.50;;;;;;5028713;28;20463;-80
2022/07/08 12:22:46;;;;;;;1.47;1.43;;;25.90;72.70;;;;;;5028473;28;20809;-79
2022/07/08 12:25:16;;;;;;;5.60;1.63;;;25.90;74.80;;;;;;5005393;28;20470;-78
2022/07/08 12:27:55;;;;;;;1.60;1.30;;;26.30;75.20;;;;;;5028980;28;20521;-80
2022/07/08 12:30:26;;;;;;;2.13;1.63;;;26.30;71.80;;;;;;5028696;28;20461;-79
2022/07/08 12:33:00;;;;;;;1.97;1.67;;;26.30;76.20;;;;;;5028739;28;20459;-78
2022/07/08 12:35:30;;;;;;;1.60;1.53;;;26.50;73.90;;;;;;5028945;28;20529;-78
2022/07/08 12:38:14;;;;;;;2.50;1.60;;;26.60;72.30;;;;;;5028585;28;20462;-78
2022/07/08 12:40:45;;;;;;;1.70;1.60;;;26.70;71.30;;;;;;5026449;28;20460;-81
2022/07/08 12:43:15;;;;;;;1.80;1.53;;;26.60;71.80;;;;;;5029200;28;20478;-80
2022/07/08 12:45:42;;;;;;;1.93;1.50;;;26.70;73.80;;;;;;5028626;28;20842;-79
2022/07/08 12:48:17;;;;;;;2.23;1.80;;;26.80;73.60;;;;;;5028842;28;20467;-80
2022/07/08 12:50:44;;;;;;;2.07;1.60;;;26.90;73.70;;;;;;5026186;28;20469;-80
2022/07/08 12:53:11;;;;;;;1.40;1.30;;;27.10;73.00;;;;;;5028704;28;21025;-81
2022/07/08 12:55:40;;;;;;;1.80;1.70;;;27.30;72.30;;;;;;5028903;28;20545;-79
2022/07/08 12:58:08;;;;;;;2.00;1.67;;;27.30;71.10;;;;;;5028770;28;20474;-79
2022/07/08 13:00:36;;;;;;;4.20;1.53;;;27.50;70.20;;;;;;5028448;28;20565;-79
2022/07/08 13:03:03;;;;;;;1.80;1.50;;;27.40;70.90;;;;;;5028219;28;20505;-79
2022/07/08 13:05:30;;;;;;;2.33;1.47;;;27.50;69.50;;;;;;5028670;28;20450;-78